Domov               UVHVVR             MKGP            O straneh              
ZDRAVSTVENO VARSTVO RASTLIN
  MREŽA AGROMET. POSTAJ
 ► PROGNOSTIČNA OBVESTILA
AGROMETEOROLOŠKI PODATKI -
ARSO
OBVLADOVANJE TVEGANJ ZARADI
NEUGODNIH VREMENSKIH RAZMER
  ► NARAVNE NESREČE
  ► SUŠA/MOČA
  ► NAMAKANJE
  ► ŽLED (gozdarstvo)
KARTOGRAFSKI PRIKAZI
SPLETNE POVEZAVE
PROJEKTI IN PUBLIKACIJE

AGROMETEOROLOŠKA MREŽA: VREMENSKE POSTAJE IN FENOLOŠKA OPAZOVANJA

Pregled podatkov za lokacijo Labor, meteorološka postaja 42414

Pregled senzorjev na lokaciji

ID Ime Zadnja
vrednost
Datum
zadnje
spremembe
Tip
senzorja
2102 Padavine (mm) 0 mm 23.7.2018 05:00 Rain-O-Matic
2100 Relativna vlaga 2 m (% RH) 62,68 % RH 23.7.2018 05:00 50YA
2099 Temperatura 2 m (°C) 19,48 °C 23.7.2018 05:00 50YA

Pregled podatkov zadnjih 24 ur

Zap.
št.
Datum in čas Labor
Padavine Relativna
vlaga
2
m
Temperatura
2
m
1 23.7.2018 05:30
2 23.7.2018 05:00
3 23.7.2018 04:30
4 23.7.2018 04:00 0 62,7 19,5
5 23.7.2018 03:30 0 60,2 19,8
6 23.7.2018 03:00 0 64,5 19,3
7 23.7.2018 02:30 0 62,5 19,8
8 23.7.2018 02:00 0 66,1 19,6
9 23.7.2018 01:30 0 62,3 20,4
10 23.7.2018 01:00 0 69,5 19,8
11 23.7.2018 00:30 0 70,2 19,9
12 23.7.2018 00:00 0 67,5 20,4
13 22.7.2018 23:30 0 72,3 20,6
14 22.7.2018 23:00 0 74,9 20,8
15 22.7.2018 22:30 0 82,4 20,7
16 22.7.2018 22:00 0 80,6 21,2
17 22.7.2018 21:30 0 80,3 21,2
18 22.7.2018 21:00 0 81,1 21
19 22.7.2018 20:30 0 84,2 20,7
20 22.7.2018 20:00 0 82,5 20,9
21 22.7.2018 19:30 0 80,9 21,5
22 22.7.2018 19:00 0 78,8 21,9
23 22.7.2018 18:30 0 76,2 22,9
24 22.7.2018 18:00 0 70,8 24,3
25 22.7.2018 17:30 0 68,3 24,5
26 22.7.2018 17:00 0 68,5 24
27 22.7.2018 16:30 0 74,5 23,2
28 22.7.2018 16:00 0 70,4 23,5
29 22.7.2018 15:30 0 60,7 24,7
30 22.7.2018 15:00 0 64,3 24,4
31 22.7.2018 14:30 0 75,9 22,9
32 22.7.2018 14:00 0 81,9 21
33 22.7.2018 13:30 8,2 97,3 16,8
34 22.7.2018 13:00 16,6 87,7 19
35 22.7.2018 12:30 0,2 80,2 21,4
36 22.7.2018 12:00 5 68,3 24,1
37 22.7.2018 11:30 0 68,8 23,7
38 22.7.2018 11:00 0 66,4 25
39 22.7.2018 10:30 0 61,8 25,5
40 22.7.2018 10:00 0 61,6 25,2
41 22.7.2018 09:30 0 65,5 23,8
42 22.7.2018 09:00 0 74,4 22,8
43 22.7.2018 08:30 0 71,8 23,3
44 22.7.2018 08:00 0 74,4 22,9
45 22.7.2018 07:30 0 71,3 22,7
46 22.7.2018 07:00 0 69,4 22,5
47 22.7.2018 06:30 0 72,8 21,5
48 22.7.2018 06:00 0 69 20,8
© 2011 Ministrstvo za kmetijstvo, gozdarstvo in prehrano. Vse pravice pridržane.